createdAt,value
2022-08-25T00:02:13.240Z,62.91
2022-08-25T00:04:40.324Z,63.44
2022-08-25T00:07:07.763Z,63.84
2022-08-25T00:09:35.402Z,63.97
2022-08-25T00:12:03.017Z,64.38
2022-08-25T00:14:33.780Z,64.97
2022-08-25T00:17:00.789Z,65.01
2022-08-25T00:19:32.070Z,65.26
2022-08-25T00:22:00.769Z,64.95
2022-08-25T00:24:27.803Z,64.83
2022-08-25T00:26:56.957Z,65.38
2022-08-25T00:29:26.045Z,66.09
2022-08-25T00:31:53.177Z,65.65
2022-08-25T00:34:24.189Z,66.86
2022-08-25T00:36:51.767Z,66.46
2022-08-25T00:39:20.977Z,66.36
2022-08-25T00:41:49.793Z,66.49
2022-08-25T00:44:19.853Z,66.29
2022-08-25T00:46:53.617Z,66.90
2022-08-25T00:49:24.849Z,67.51
2022-08-25T00:51:58.779Z,67.05
2022-08-25T00:54:30.879Z,67.77
2022-08-25T00:56:59.781Z,67.81
2022-08-25T00:59:27.594Z,67.78
2022-08-25T01:01:55.338Z,68.00
2022-08-25T01:04:21.866Z,68.40
2022-08-25T01:06:49.300Z,68.56
2022-08-25T01:09:17.092Z,68.99
2022-08-25T01:11:44.789Z,68.75
2022-08-25T01:14:14.765Z,68.23
2022-08-25T01:16:43.487Z,68.77
2022-08-25T01:19:15.226Z,69.54
2022-08-25T01:21:48.170Z,69.77
2022-08-25T01:24:44.902Z,70.37
2022-08-25T01:27:11.554Z,70.25
2022-08-25T01:29:38.504Z,69.70
2022-08-25T01:32:08.980Z,69.34
2022-08-25T01:34:38.306Z,69.27
2022-08-25T01:37:05.384Z,69.65
2022-08-25T01:39:36.794Z,69.30
2022-08-25T01:42:04.032Z,69.02
2022-08-25T01:44:31.757Z,69.00
2022-08-25T01:46:58.361Z,69.56
2022-08-25T01:49:24.807Z,69.46
2022-08-25T01:52:06.607Z,69.73
2022-08-25T01:54:33.417Z,70.36
2022-08-25T01:56:59.810Z,70.32
2022-08-25T01:59:27.291Z,71.47
2022-08-25T02:02:00.200Z,71.32
2022-08-25T02:04:31.959Z,71.22
2022-08-25T02:07:03.674Z,71.87
2022-08-25T02:09:30.193Z,71.58
2022-08-25T02:11:56.763Z,71.02
2022-08-25T02:14:24.004Z,71.14
2022-08-25T02:16:51.982Z,71.28
2022-08-25T02:19:19.879Z,70.95
2022-08-25T02:21:46.775Z,71.58
2022-08-25T02:24:13.655Z,72.14
2022-08-25T02:26:41.136Z,72.25
2022-08-25T02:29:08.194Z,72.35
2022-08-25T02:31:35.762Z,72.19
2022-08-25T02:34:02.750Z,72.73
2022-08-25T02:36:30.632Z,72.43
2022-08-25T02:38:57.089Z,72.97
2022-08-25T02:41:30.957Z,73.36
2022-08-25T02:43:59.014Z,72.97
2022-08-25T02:46:25.612Z,73.27
2022-08-25T02:48:53.294Z,73.34
2022-08-25T02:51:22.656Z,73.15
2022-08-25T02:53:49.972Z,73.96
2022-08-25T02:56:18.813Z,73.33
2022-08-25T02:58:46.322Z,74.39
2022-08-25T03:01:13.069Z,74.04
2022-08-25T03:03:40.784Z,73.39
2022-08-25T03:06:09.688Z,74.16
2022-08-25T03:08:37.529Z,74.71
2022-08-25T03:11:05.149Z,74.73
2022-08-25T03:13:32.674Z,74.60
2022-08-25T03:16:00.315Z,74.78
2022-08-25T03:18:27.487Z,76.14
2022-08-25T03:20:54.813Z,75.59
2022-08-25T03:23:21.244Z,75.20
2022-08-25T03:26:06.286Z,74.30
2022-08-25T03:28:33.226Z,74.70
2022-08-25T03:31:00.947Z,75.29
2022-08-25T03:33:29.305Z,76.09
2022-08-25T03:35:56.366Z,75.78
2022-08-25T03:38:25.231Z,75.60
2022-08-25T03:40:52.114Z,76.13
2022-08-25T03:43:19.400Z,76.39
2022-08-25T03:45:47.680Z,76.88
2022-08-25T03:48:15.176Z,77.21
2022-08-25T03:50:51.675Z,77.67
2022-08-25T03:53:19.486Z,76.80
2022-08-25T03:55:46.029Z,76.23
2022-08-25T03:58:12.591Z,76.16
2022-08-25T04:00:39.396Z,75.79
2022-08-25T04:03:05.987Z,75.13
2022-08-25T04:05:32.928Z,75.59
2022-08-25T04:08:01.797Z,75.20
2022-08-25T04:10:28.925Z,75.44
2022-08-25T04:12:56.057Z,76.50
2022-08-25T04:15:23.936Z,76.57
2022-08-25T04:17:58.696Z,77.23
2022-08-25T04:20:25.169Z,77.41
2022-08-25T04:22:51.639Z,77.20
2022-08-25T04:25:18.122Z,77.78
2022-08-25T04:27:44.539Z,77.70
2022-08-25T04:30:11.670Z,77.22
2022-08-25T04:32:38.076Z,73.90
2022-08-25T04:35:05.367Z,76.08
2022-08-25T04:37:32.426Z,76.43
2022-08-25T04:39:58.858Z,76.84
2022-08-25T04:42:26.913Z,76.51
2022-08-25T04:44:54.319Z,77.00
2022-08-25T04:47:20.784Z,77.30
2022-08-25T04:49:47.787Z,77.26
2022-08-25T04:52:14.737Z,77.60
2022-08-25T04:54:42.255Z,77.46
2022-08-25T04:57:09.480Z,78.14
2022-08-25T04:59:36.023Z,78.12
2022-08-25T05:02:03.291Z,78.02
2022-08-25T05:04:31.458Z,78.48
2022-08-25T05:06:58.589Z,77.99
2022-08-25T05:09:26.110Z,78.08
2022-08-25T05:11:53.576Z,77.66
2022-08-25T05:14:25.560Z,78.22
2022-08-25T05:16:53.296Z,77.89
2022-08-25T05:19:19.857Z,76.33
2022-08-25T05:21:46.298Z,75.31
2022-08-25T05:24:12.734Z,73.01
2022-08-25T05:26:39.683Z,71.43
2022-08-25T05:29:06.880Z,69.86
2022-08-25T05:31:36.397Z,68.00
2022-08-25T05:34:07.890Z,66.03
2022-08-25T05:36:35.222Z,64.59
2022-08-25T05:39:01.938Z,63.98
2022-08-25T05:41:30.333Z,63.48
2022-08-25T05:43:57.268Z,62.17
2022-08-25T05:46:24.451Z,61.64
2022-08-25T05:48:51.227Z,60.97
2022-08-25T05:51:18.911Z,61.04
2022-08-25T05:53:47.665Z,61.30
2022-08-25T05:56:14.361Z,60.61
2022-08-25T05:58:42.164Z,60.45
2022-08-25T06:01:28.934Z,60.32
2022-08-25T06:03:55.525Z,60.90
2022-08-25T06:06:24.429Z,61.76
2022-08-25T06:08:51.608Z,61.97
2022-08-25T06:11:18.211Z,62.13
2022-08-25T06:13:45.505Z,62.42
2022-08-25T06:16:11.969Z,62.77
2022-08-25T06:18:38.447Z,63.24
2022-08-25T06:21:12.809Z,63.03
2022-08-25T06:23:40.128Z,63.14
2022-08-25T06:26:07.460Z,63.25
2022-08-25T06:28:33.940Z,62.80
2022-08-25T06:31:02.160Z,64.32
2022-08-25T06:33:29.137Z,64.01
2022-08-25T06:35:56.460Z,63.92
2022-08-25T06:38:23.537Z,62.89
2022-08-25T06:40:52.009Z,63.49
2022-08-25T06:43:20.092Z,62.79
2022-08-25T06:45:46.570Z,62.91
2022-08-25T06:48:13.091Z,63.00
2022-08-25T06:50:40.203Z,61.82
2022-08-25T06:53:06.719Z,61.37
2022-08-25T06:55:35.064Z,62.41
2022-08-25T06:58:03.423Z,63.06
2022-08-25T07:00:32.113Z,62.59
2022-08-25T07:03:01.006Z,62.63
2022-08-25T07:05:42.621Z,62.21
2022-08-25T07:08:11.623Z,62.15
2022-08-25T07:10:38.091Z,62.48
2022-08-25T07:13:04.499Z,62.02
2022-08-25T07:15:30.905Z,62.01
2022-08-25T07:17:57.692Z,61.59
2022-08-25T07:22:52.249Z,60.99
2022-08-25T07:25:18.907Z,60.75
2022-08-25T07:27:45.857Z,62.04
2022-08-25T07:30:12.333Z,62.09
2022-08-25T07:32:42.279Z,61.84
2022-08-25T07:35:27.303Z,61.93
2022-08-25T07:38:06.603Z,62.39
2022-08-25T07:40:37.487Z,61.04
2022-08-25T07:43:09.460Z,62.74
2022-08-25T07:45:46.882Z,63.87
2022-08-25T07:48:19.595Z,63.98
2022-08-25T07:50:47.121Z,64.04
2022-08-25T07:53:15.769Z,64.70
2022-08-25T07:55:45.129Z,63.81
2022-08-25T07:58:13.782Z,64.12
2022-08-25T08:00:42.384Z,63.42
2022-08-25T08:03:12.903Z,63.36
2022-08-25T08:05:46.736Z,63.21
2022-08-25T08:08:16.340Z,62.91
2022-08-25T08:11:03.183Z,63.44
2022-08-25T08:13:34.862Z,62.12
2022-08-25T08:16:09.278Z,61.75
2022-08-25T08:18:35.784Z,62.06
2022-08-25T08:21:02.224Z,61.44
2022-08-25T08:23:30.481Z,60.78
2022-08-25T08:25:57.135Z,61.14
2022-08-25T08:28:27.736Z,60.29
2022-08-25T08:30:54.218Z,60.04
2022-08-25T08:33:23.751Z,59.69
2022-08-25T08:36:09.723Z,58.33
2022-08-25T08:38:37.918Z,58.41
2022-08-25T08:42:09.408Z,59.16
2022-08-25T08:45:02.597Z,58.51
2022-08-25T08:47:56.470Z,58.23
2022-08-25T08:50:32.928Z,58.14
2022-08-25T08:53:16.472Z,58.47
2022-08-25T08:55:53.503Z,58.01
2022-08-25T08:58:26.222Z,58.67
2022-08-25T09:00:58.182Z,58.50
2022-08-25T09:03:29.662Z,58.01
2022-08-25T09:05:59.191Z,58.35
2022-08-25T09:08:26.716Z,57.72
2022-08-25T09:11:23.039Z,57.07
2022-08-25T09:14:18.583Z,56.39
2022-08-25T09:17:01.145Z,53.66
2022-08-25T09:19:41.769Z,54.05
2022-08-25T09:22:33.508Z,55.10
2022-08-25T09:25:10.431Z,54.98
2022-08-25T09:28:03.771Z,52.53
2022-08-25T09:30:58.972Z,52.21
2022-08-25T09:33:28.498Z,52.29
2022-08-25T09:35:57.516Z,52.40
2022-08-25T09:38:26.185Z,51.99
2022-08-25T09:40:56.073Z,51.03
2022-08-25T09:43:31.850Z,51.75
2022-08-25T09:46:02.479Z,51.16
2022-08-25T09:48:40.683Z,51.31
2022-08-25T09:51:42.359Z,50.73
2022-08-25T09:54:18.278Z,50.89
2022-08-25T09:56:55.519Z,51.00
2022-08-25T09:59:36.034Z,48.53
2022-08-25T10:02:23.816Z,47.96
2022-08-25T10:04:50.398Z,46.00
2022-08-25T10:07:30.433Z,48.05
2022-08-25T10:10:04.521Z,48.40
2022-08-25T10:12:42.466Z,47.34
2022-08-25T10:15:31.843Z,46.52
2022-08-25T10:18:21.946Z,47.52
2022-08-25T10:21:15.053Z,45.91
2022-08-25T10:23:49.537Z,48.09
2022-08-25T10:26:36.970Z,47.23
2022-08-25T10:29:22.979Z,46.14
2022-08-25T10:32:11.940Z,46.47
2022-08-25T10:34:51.769Z,46.62
2022-08-25T10:37:44.846Z,46.89
2022-08-25T10:40:46.083Z,45.75
2022-08-25T10:43:31.392Z,44.50
2022-08-25T10:46:13.487Z,43.58
2022-08-25T10:49:02.554Z,44.36
2022-08-25T10:51:41.481Z,44.06
2022-08-25T10:54:15.946Z,44.58
2022-08-25T10:56:49.435Z,44.94
2022-08-25T10:59:25.365Z,44.06
2022-08-25T11:02:15.195Z,43.30
2022-08-25T11:04:52.712Z,43.21
2022-08-25T11:07:27.177Z,42.65
2022-08-25T11:09:59.699Z,41.70
2022-08-25T11:13:00.976Z,42.92
2022-08-25T11:15:36.873Z,42.12
2022-08-25T11:18:14.482Z,42.84
2022-08-25T11:21:16.459Z,42.09
2022-08-25T11:24:09.156Z,41.63
2022-08-25T11:26:37.784Z,40.43
2022-08-25T11:29:14.328Z,40.97
2022-08-25T11:31:52.236Z,41.49
2022-08-25T11:34:21.401Z,41.03
2022-08-25T11:37:03.844Z,41.26
2022-08-25T11:39:51.771Z,41.12
2022-08-25T11:42:45.732Z,40.90
2022-08-25T11:45:39.901Z,40.13
2022-08-25T11:48:30.017Z,40.36
2022-08-25T11:51:12.408Z,39.78
2022-08-25T11:53:42.405Z,40.57
2022-08-25T11:56:32.677Z,41.47
2022-08-25T11:58:59.298Z,41.23
2022-08-25T12:01:51.755Z,41.30
2022-08-25T12:04:44.301Z,40.93
2022-08-25T12:07:14.861Z,40.90
2022-08-25T12:09:50.297Z,39.99
2022-08-25T12:12:41.653Z,40.65
2022-08-25T12:15:14.721Z,40.08
2022-08-25T12:17:41.490Z,41.11
2022-08-25T12:20:08.478Z,41.48
2022-08-25T12:22:34.980Z,41.65
2022-08-25T12:25:11.545Z,41.30
2022-08-25T12:28:00.795Z,41.40
2022-08-25T12:30:50.633Z,41.30
2022-08-25T12:33:31.714Z,41.47
2022-08-25T12:36:11.173Z,40.18
2022-08-25T12:38:47.318Z,40.39
2022-08-25T12:41:22.382Z,40.24
2022-08-25T12:43:54.274Z,40.82
2022-08-25T12:46:25.561Z,41.29
2022-08-25T12:49:11.461Z,41.81
2022-08-25T12:52:12.963Z,41.94
2022-08-25T12:54:49.052Z,40.91
2022-08-25T12:57:36.653Z,41.91
2022-08-25T13:00:16.772Z,41.46
2022-08-25T13:02:57.289Z,40.83
2022-08-25T13:05:58.297Z,40.92
2022-08-25T13:08:59.229Z,40.66
2022-08-25T13:11:39.896Z,39.99
2022-08-25T13:14:26.689Z,39.34
2022-08-25T13:16:59.126Z,39.31
2022-08-25T13:19:27.271Z,39.83
2022-08-25T13:22:04.299Z,39.96
2022-08-25T13:24:40.662Z,40.05
2022-08-25T13:27:10.570Z,40.45
2022-08-25T13:29:52.069Z,40.83
2022-08-25T13:32:32.082Z,40.73
2022-08-25T13:35:22.011Z,40.24
2022-08-25T13:37:48.910Z,40.57
2022-08-25T13:40:25.901Z,39.75
2022-08-25T13:43:06.658Z,40.14
2022-08-25T13:45:42.036Z,40.53
2022-08-25T13:48:22.537Z,39.97
2022-08-25T13:50:52.015Z,39.57
2022-08-25T13:53:25.497Z,38.85
2022-08-25T13:55:57.105Z,39.39
2022-08-25T13:58:39.006Z,38.83
2022-08-25T14:01:19.983Z,38.71
2022-08-25T14:03:51.361Z,38.70
2022-08-25T14:06:17.685Z,38.01
2022-08-25T14:08:59.299Z,37.77
2022-08-25T14:11:44.022Z,38.29
2022-08-25T14:14:14.629Z,38.45
2022-08-25T14:16:49.777Z,38.89
2022-08-25T14:19:20.053Z,38.96
2022-08-25T14:21:47.418Z,38.73
2022-08-25T14:24:18.439Z,38.30
2022-08-25T14:26:54.097Z,38.30
2022-08-25T14:29:22.086Z,38.55
2022-08-25T14:31:49.061Z,38.65
2022-08-25T14:34:25.593Z,38.82
2022-08-25T14:36:55.889Z,38.62
2022-08-25T14:39:22.578Z,38.74
2022-08-25T14:41:52.598Z,38.74
2022-08-25T14:44:20.107Z,39.25
2022-08-25T14:46:51.968Z,39.47
2022-08-25T14:49:24.652Z,38.79
2022-08-25T14:51:51.730Z,38.96
2022-08-25T14:54:23.372Z,38.78
2022-08-25T14:56:49.852Z,38.96
2022-08-25T14:59:16.970Z,39.11
2022-08-25T15:01:43.638Z,38.75
2022-08-25T15:04:17.634Z,39.02
2022-08-25T15:06:45.069Z,38.94
2022-08-25T15:09:16.119Z,38.54
2022-08-25T15:11:45.338Z,38.67
2022-08-25T15:14:15.406Z,38.50
2022-08-25T15:16:49.342Z,38.68
2022-08-25T15:19:18.441Z,38.06
2022-08-25T15:21:46.968Z,38.64
2022-08-25T15:24:17.722Z,38.37
2022-08-25T15:29:25.404Z,38.67
2022-08-25T15:31:51.901Z,39.06
2022-08-25T15:34:19.342Z,39.09
2022-08-25T15:36:46.582Z,38.90
2022-08-25T15:39:14.574Z,38.50
2022-08-25T15:41:42.632Z,38.53
2022-08-25T15:44:11.366Z,38.48
2022-08-25T15:46:40.579Z,38.31
2022-08-25T15:49:07.898Z,38.62
2022-08-25T15:51:34.832Z,38.23
2022-08-25T15:54:01.245Z,38.47
2022-08-25T15:56:27.703Z,37.70
2022-08-25T15:58:55.386Z,37.93
2022-08-25T16:01:24.907Z,38.13
2022-08-25T16:03:52.140Z,38.45
2022-08-25T16:06:18.906Z,38.63
2022-08-25T16:08:45.497Z,38.60
2022-08-25T16:11:31.440Z,38.37
2022-08-25T16:13:58.351Z,39.09
2022-08-25T16:16:28.557Z,39.45
2022-08-25T16:18:56.287Z,39.85
2022-08-25T16:21:29.052Z,39.73
2022-08-25T16:24:00.329Z,39.78
2022-08-25T16:26:30.428Z,39.72
2022-08-25T16:28:57.089Z,39.40
2022-08-25T16:31:24.730Z,39.12
2022-08-25T16:33:54.715Z,38.61
2022-08-25T16:36:27.226Z,39.13
2022-08-25T16:38:56.026Z,39.58
2022-08-25T16:41:25.568Z,39.16
2022-08-25T16:43:52.215Z,39.51
2022-08-25T16:46:20.815Z,39.57
2022-08-25T16:48:48.705Z,39.41
2022-08-25T16:51:19.384Z,40.12
2022-08-25T16:54:07.853Z,40.15
2022-08-25T16:56:37.057Z,40.28
2022-08-25T16:59:06.305Z,39.69
2022-08-25T17:01:34.025Z,39.95
2022-08-25T17:04:01.897Z,40.12
2022-08-25T17:06:30.104Z,40.25
2022-08-25T17:08:56.765Z,40.03
2022-08-25T17:11:30.576Z,40.31
2022-08-25T17:14:00.919Z,40.98
2022-08-25T17:16:32.466Z,40.41
2022-08-25T17:19:06.833Z,40.26
2022-08-25T17:21:36.896Z,40.30
2022-08-25T17:24:05.035Z,40.11
2022-08-25T17:26:32.043Z,40.87
2022-08-25T17:29:01.061Z,40.66
2022-08-25T17:31:29.973Z,40.42
2022-08-25T17:33:57.811Z,40.59
2022-08-25T17:36:26.884Z,39.89
2022-08-25T17:38:54.446Z,40.59
2022-08-25T17:41:20.954Z,41.00
2022-08-25T17:43:47.650Z,41.39
2022-08-25T17:46:15.111Z,41.03
2022-08-25T17:48:43.721Z,42.64
2022-08-25T17:51:10.776Z,42.68
2022-08-25T17:53:38.443Z,43.05
2022-08-25T17:56:10.695Z,43.74
2022-08-25T17:58:38.190Z,43.33
2022-08-25T18:01:05.526Z,43.64
2022-08-25T18:03:33.114Z,44.43
2022-08-25T18:06:00.302Z,44.90
2022-08-25T18:08:35.195Z,45.74
2022-08-25T18:11:03.310Z,46.32
2022-08-25T18:13:31.181Z,46.97
2022-08-25T18:15:58.057Z,46.61
2022-08-25T18:18:24.476Z,47.39
2022-08-25T18:20:51.033Z,47.14
2022-08-25T18:23:19.522Z,47.62
2022-08-25T18:25:49.150Z,47.33
2022-08-25T18:28:16.086Z,48.14
2022-08-25T18:30:43.172Z,47.78
2022-08-25T18:33:10.285Z,47.79
2022-08-25T18:35:36.836Z,49.36
2022-08-25T18:38:24.078Z,48.31
2022-08-25T18:40:58.980Z,49.24
2022-08-25T18:43:26.374Z,49.81
2022-08-25T18:45:52.837Z,49.66
2022-08-25T18:48:20.483Z,49.88
2022-08-25T18:50:47.732Z,50.10
2022-08-25T18:53:19.108Z,50.32
2022-08-25T18:55:58.078Z,50.54
2022-08-25T18:58:25.981Z,50.64
2022-08-25T19:00:52.645Z,50.90
2022-08-25T19:03:22.272Z,51.40
2022-08-25T19:05:57.420Z,51.38
2022-08-25T19:08:24.973Z,51.98
2022-08-25T19:10:53.526Z,52.47
2022-08-25T19:13:22.552Z,52.79
2022-08-25T19:15:51.393Z,53.04
2022-08-25T19:18:19.410Z,53.04
2022-08-25T19:20:55.426Z,53.38
2022-08-25T19:23:21.845Z,53.44
2022-08-25T19:25:48.296Z,53.46
2022-08-25T19:28:14.742Z,53.22
2022-08-25T19:30:50.138Z,52.05
2022-08-25T19:33:42.366Z,52.33
2022-08-25T19:36:06.307Z,51.55
2022-08-25T19:38:36.095Z,53.08
2022-08-25T19:41:09.381Z,54.34
2022-08-25T19:43:56.706Z,54.42
2022-08-25T19:46:32.740Z,54.27
2022-08-25T19:49:09.013Z,54.48
2022-08-25T19:51:44.306Z,55.58
2022-08-25T19:54:13.745Z,55.48
2022-08-25T19:56:53.715Z,55.42
2022-08-25T19:59:22.505Z,55.53
2022-08-25T20:01:49.791Z,54.84
2022-08-25T20:04:16.372Z,54.84
2022-08-25T20:06:42.970Z,54.22
2022-08-25T20:09:35.743Z,55.27
2022-08-25T20:12:01.308Z,55.65
2022-08-25T20:14:29.039Z,56.30
2022-08-25T20:16:55.535Z,56.67
2022-08-25T20:19:21.970Z,56.79
2022-08-25T20:21:48.460Z,56.69
2022-08-25T20:24:33.270Z,57.24
2022-08-25T20:27:00.299Z,56.79
2022-08-25T20:29:26.749Z,57.24
2022-08-25T20:31:53.329Z,57.37
2022-08-25T20:34:19.760Z,57.97
2022-08-25T20:36:49.889Z,58.77
2022-08-25T20:39:17.786Z,58.80
2022-08-25T20:41:45.301Z,59.16
2022-08-25T20:44:15.615Z,59.49
2022-08-25T20:46:42.082Z,60.39
2022-08-25T20:49:09.047Z,60.05
2022-08-25T20:51:35.522Z,59.27
2022-08-25T20:54:02.044Z,60.02
2022-08-25T20:56:30.448Z,60.68
2022-08-25T20:58:56.916Z,60.83
2022-08-25T21:01:39.701Z,61.25
2022-08-25T21:04:14.451Z,61.67
2022-08-25T21:06:41.503Z,61.15
2022-08-25T21:09:15.909Z,61.33
2022-08-25T21:11:45.032Z,62.08
2022-08-25T21:14:12.757Z,61.90
2022-08-25T21:16:40.827Z,61.95
2022-08-25T21:19:09.059Z,62.13
2022-08-25T21:21:38.220Z,62.27
2022-08-25T21:24:09.794Z,62.17
2022-08-25T21:26:48.808Z,62.32
2022-08-25T21:29:16.583Z,62.39
2022-08-25T21:31:43.108Z,62.72
2022-08-25T21:34:11.378Z,62.75
2022-08-25T21:36:39.465Z,62.85
2022-08-25T21:39:06.237Z,63.08
2022-08-25T21:41:35.243Z,63.29
2022-08-25T21:44:03.763Z,63.70
2022-08-25T21:46:32.394Z,64.29
2022-08-25T21:49:00.573Z,65.62
2022-08-25T21:51:40.615Z,65.80
2022-08-25T21:54:11.907Z,66.15
2022-08-25T21:57:02.532Z,65.98
2022-08-25T21:59:32.358Z,65.70
2022-08-25T22:02:02.096Z,65.70
2022-08-25T22:04:30.010Z,65.17
2022-08-25T22:06:58.034Z,65.37
2022-08-25T22:09:25.219Z,67.13
2022-08-25T22:11:53.154Z,66.70
2022-08-25T22:14:23.370Z,66.55
2022-08-25T22:16:50.456Z,66.60
2022-08-25T22:19:17.338Z,66.48
2022-08-25T22:21:44.643Z,67.48
2022-08-25T22:24:11.858Z,67.28
2022-08-25T22:26:39.136Z,67.49
2022-08-25T22:29:06.298Z,67.77
2022-08-25T22:31:33.762Z,68.52
2022-08-25T22:34:01.003Z,69.21
2022-08-25T22:36:34.380Z,69.32
2022-08-25T22:39:02.121Z,69.53
2022-08-25T22:41:30.093Z,69.57
2022-08-25T22:43:57.673Z,68.87
2022-08-25T22:46:26.422Z,68.75
2022-08-25T22:48:55.432Z,68.97
2022-08-25T22:51:25.198Z,68.99
2022-08-25T22:53:51.859Z,69.86
2022-08-25T22:56:29.649Z,70.23
2022-08-25T22:59:01.293Z,70.38
2022-08-25T23:01:27.919Z,70.88
2022-08-25T23:03:54.694Z,71.56
2022-08-25T23:06:24.713Z,71.50
2022-08-25T23:08:53.569Z,71.83
2022-08-25T23:11:21.672Z,71.12
2022-08-25T23:13:49.096Z,71.76
2022-08-25T23:16:16.968Z,72.31
2022-08-25T23:18:47.042Z,71.27
2022-08-25T23:21:35.318Z,71.76
2022-08-25T23:24:07.595Z,72.03
2022-08-25T23:26:34.811Z,71.94
2022-08-25T23:29:03.203Z,72.10
2022-08-25T23:31:34.417Z,73.19
2022-08-25T23:34:00.897Z,72.94
2022-08-25T23:36:29.347Z,73.44
2022-08-25T23:38:56.198Z,72.56
2022-08-25T23:41:24.589Z,73.34
2022-08-25T23:43:51.619Z,73.08
2022-08-25T23:46:21.699Z,72.92
2022-08-25T23:48:49.007Z,73.36
2022-08-25T23:51:23.909Z,73.61
2022-08-25T23:53:50.779Z,73.91
2022-08-25T23:56:17.306Z,74.53
2022-08-25T23:58:43.917Z,75.11
